Terminal Aerodrome Forecast
Issued by NWS Missoula, MT

Current Version | Previous Version | Text Only | Print | Product List | Glossary On
Versions: 1 2 3 4 5 6 7 8 9 10 11 12
000
FTUS45 KMSO 210520
TAFBTM
TAF
KBTM 210520Z 2106/2206 18008KT P6SM VCSH BKN080 OVC100
     FM210800 17005KT 3SM -SN BKN020 OVC030
     FM211100 24008KT 5SM -RASN BKN020 OVC040=

USA.gov is the U.S. government's official web portal to all federal, state and local government web resources and services.